createdAt,value
2022-10-25T00:01:21.991Z,13.57
2022-10-25T00:03:50.493Z,13.57
2022-10-25T00:06:19.057Z,13.56
2022-10-25T00:08:47.635Z,13.54
2022-10-25T00:11:20.832Z,13.53
2022-10-25T00:13:51.380Z,13.54
2022-10-25T00:16:22.556Z,13.52
2022-10-25T00:18:51.395Z,13.52
2022-10-25T00:21:20.363Z,13.53
2022-10-25T00:23:49.289Z,13.45
2022-10-25T00:26:17.639Z,13.41
2022-10-25T00:28:46.059Z,13.40
2022-10-25T00:31:17.357Z,13.42
2022-10-25T00:33:46.471Z,13.39
2022-10-25T00:36:17.165Z,13.34
2022-10-25T00:38:46.285Z,13.29
2022-10-25T00:41:16.045Z,13.20
2022-10-25T00:43:47.903Z,13.16
2022-10-25T00:46:24.515Z,13.12
2022-10-25T00:48:58.202Z,13.05
2022-10-25T00:51:31.441Z,13.02
2022-10-25T00:53:59.893Z,12.99
2022-10-25T00:56:32.996Z,12.96
2022-10-25T00:59:05.365Z,12.92
2022-10-25T01:01:35.497Z,12.91
2022-10-25T01:04:08.658Z,12.89
2022-10-25T01:06:40.411Z,12.88
2022-10-25T01:09:11.029Z,12.86
2022-10-25T01:11:39.449Z,12.85
2022-10-25T01:14:10.523Z,12.84
2022-10-25T01:16:49.265Z,12.85
2022-10-25T01:19:42.282Z,12.87
2022-10-25T01:22:17.144Z,12.91
2022-10-25T01:25:04.320Z,12.89
2022-10-25T01:30:31.199Z,12.83
2022-10-25T01:33:16.546Z,12.84
2022-10-25T01:35:54.401Z,12.87
2022-10-25T01:38:34.340Z,12.89
2022-10-25T01:41:12.759Z,12.90
2022-10-25T01:43:46.746Z,12.92
2022-10-25T01:46:25.260Z,12.93
2022-10-25T01:49:02.243Z,12.93
2022-10-25T01:51:30.549Z,12.92
2022-10-25T01:53:58.992Z,12.92
2022-10-25T01:56:30.917Z,12.93
2022-10-25T01:59:14.456Z,12.94
2022-10-25T02:01:55.216Z,12.93
2022-10-25T02:04:40.329Z,12.94
2022-10-25T02:07:12.221Z,12.96
2022-10-25T02:09:50.833Z,12.96
2022-10-25T02:12:26.543Z,12.94
2022-10-25T02:15:05.455Z,12.95
2022-10-25T02:17:37.844Z,12.93
2022-10-25T02:20:10.035Z,12.95
2022-10-25T02:22:39.401Z,12.93
2022-10-25T02:25:10.552Z,12.91
2022-10-25T02:27:40.799Z,12.90
2022-10-25T02:30:10.230Z,12.91
2022-10-25T02:32:38.587Z,12.94
2022-10-25T02:35:15.498Z,12.96
2022-10-25T02:37:44.410Z,13.00
2022-10-25T02:40:13.792Z,13.02
2022-10-25T02:42:42.124Z,13.06
2022-10-25T02:45:11.541Z,13.07
2022-10-25T02:47:40.716Z,13.10
2022-10-25T02:50:10.968Z,13.13
2022-10-25T02:52:42.120Z,13.15
2022-10-25T02:55:11.004Z,13.17
2022-10-25T02:57:39.604Z,13.19
2022-10-25T03:00:10.492Z,13.20
2022-10-25T03:02:38.827Z,13.22
2022-10-25T03:05:07.736Z,13.22
2022-10-25T03:07:37.432Z,13.22
2022-10-25T03:10:06.796Z,13.22
2022-10-25T03:12:35.126Z,13.22
2022-10-25T03:15:03.451Z,13.22
2022-10-25T03:17:31.837Z,13.23
2022-10-25T03:20:00.173Z,13.20
2022-10-25T03:22:28.565Z,13.16
2022-10-25T03:24:58.359Z,13.17
2022-10-25T03:27:26.701Z,13.18
2022-10-25T03:29:54.997Z,13.20
2022-10-25T03:32:23.312Z,13.21
2022-10-25T03:34:51.676Z,13.22
2022-10-25T03:37:19.988Z,13.23
2022-10-25T03:39:48.319Z,13.22
2022-10-25T03:42:17.988Z,13.20
2022-10-25T03:44:46.306Z,13.18
2022-10-25T03:47:14.637Z,13.16
2022-10-25T03:49:43.137Z,13.17
2022-10-25T03:52:12.224Z,13.18
2022-10-25T03:54:42.289Z,13.21
2022-10-25T03:57:10.705Z,13.22
2022-10-25T03:59:40.439Z,13.23
2022-10-25T04:02:08.877Z,13.23
2022-10-25T04:04:37.319Z,13.25
2022-10-25T04:07:05.762Z,13.22
2022-10-25T04:09:34.361Z,13.22
2022-10-25T04:12:02.938Z,13.20
2022-10-25T04:14:31.475Z,13.19
2022-10-25T04:17:01.223Z,13.20
2022-10-25T04:19:29.512Z,13.20
2022-10-25T04:21:58.305Z,13.20
2022-10-25T04:24:26.695Z,13.20
2022-10-25T04:26:54.981Z,13.19
2022-10-25T04:29:23.637Z,13.20
2022-10-25T04:31:51.977Z,13.20
2022-10-25T04:34:21.743Z,13.16
2022-10-25T04:36:50.086Z,13.13
2022-10-25T04:39:18.433Z,13.09
2022-10-25T04:41:46.755Z,13.06
2022-10-25T04:44:15.340Z,13.06
2022-10-25T04:46:46.435Z,13.04
2022-10-25T04:49:17.404Z,13.05
2022-10-25T04:51:47.246Z,13.07
2022-10-25T04:54:15.811Z,13.08
2022-10-25T04:56:44.152Z,13.08
2022-10-25T04:59:13.311Z,13.08
2022-10-25T05:01:41.791Z,13.08
2022-10-25T05:04:10.279Z,13.08
2022-10-25T05:06:38.625Z,13.08
2022-10-25T05:09:08.308Z,13.07
2022-10-25T05:14:10.702Z,13.04
2022-10-25T05:16:39.378Z,13.01
2022-10-25T05:19:08.042Z,12.98
2022-10-25T05:21:36.481Z,12.97
2022-10-25T05:24:05.258Z,12.97
2022-10-25T05:26:35.042Z,12.97
2022-10-25T05:29:05.616Z,12.96
2022-10-25T05:31:38.587Z,12.98
2022-10-25T05:34:06.959Z,12.98
2022-10-25T05:36:35.275Z,12.98
2022-10-25T05:39:03.704Z,12.99
2022-10-25T05:41:34.739Z,13.00
2022-10-25T05:44:07.282Z,12.99
2022-10-25T05:46:35.652Z,13.00
2022-10-25T05:49:05.011Z,12.99
2022-10-25T05:51:36.260Z,12.96
2022-10-25T05:54:07.576Z,12.95
2022-10-25T05:56:36.325Z,12.94
2022-10-25T05:59:09.095Z,12.92
2022-10-25T06:01:39.608Z,12.93
2022-10-25T06:04:08.613Z,12.94
2022-10-25T06:06:37.873Z,12.96
2022-10-25T06:09:06.955Z,12.97
2022-10-25T06:11:35.872Z,12.99
2022-10-25T06:14:06.278Z,12.99
2022-10-25T06:16:34.941Z,13.02
2022-10-25T06:19:03.293Z,13.03
2022-10-25T06:21:32.047Z,13.07
2022-10-25T06:24:01.764Z,13.05
2022-10-25T06:26:31.642Z,13.06
2022-10-25T06:29:01.565Z,13.08
2022-10-25T06:31:31.895Z,13.08
2022-10-25T06:34:01.095Z,13.09
2022-10-25T06:36:31.107Z,13.09
2022-10-25T06:39:05.476Z,13.11
2022-10-25T06:41:37.673Z,13.12
2022-10-25T06:44:07.561Z,13.12
2022-10-25T06:49:27.868Z,13.12
2022-10-25T06:51:56.271Z,13.14
2022-10-25T06:54:26.626Z,13.14
2022-10-25T06:56:55.129Z,13.15
2022-10-25T06:59:23.703Z,13.14
2022-10-25T07:01:55.186Z,13.13
2022-10-25T07:04:24.309Z,13.14
2022-10-25T07:06:55.189Z,13.16
2022-10-25T07:09:23.899Z,13.20
2022-10-25T07:11:52.423Z,13.23
2022-10-25T07:14:20.796Z,13.25
2022-10-25T07:16:49.113Z,13.29
2022-10-25T07:19:18.795Z,13.30
2022-10-25T07:21:47.154Z,13.31
2022-10-25T07:24:15.472Z,13.33
2022-10-25T07:26:44.149Z,13.37
2022-10-25T07:29:12.644Z,13.39
2022-10-25T07:31:44.265Z,13.41
2022-10-25T07:34:14.614Z,13.44
2022-10-25T07:36:45.608Z,13.48
2022-10-25T07:39:14.000Z,13.50
2022-10-25T07:41:42.360Z,13.51
2022-10-25T07:44:15.911Z,13.53
2022-10-25T07:46:45.229Z,13.57
2022-10-25T07:49:15.238Z,13.60
2022-10-25T07:51:45.055Z,13.63
2022-10-25T07:54:13.483Z,13.66
2022-10-25T07:56:41.901Z,13.69
2022-10-25T07:59:10.268Z,13.70
2022-10-25T08:01:38.744Z,13.68
2022-10-25T08:04:07.139Z,13.70
2022-10-25T08:06:36.215Z,13.70
2022-10-25T08:09:14.545Z,13.73
2022-10-25T08:11:48.809Z,13.76
2022-10-25T08:14:17.391Z,13.76
2022-10-25T08:16:45.806Z,13.77
2022-10-25T08:19:14.159Z,13.81
2022-10-25T08:21:42.543Z,13.86
2022-10-25T08:24:12.504Z,13.93
2022-10-25T08:26:40.901Z,13.98
2022-10-25T08:29:09.385Z,14.03
2022-10-25T08:31:37.842Z,14.10
2022-10-25T08:34:06.229Z,14.24
2022-10-25T08:36:34.764Z,14.32
2022-10-25T08:39:03.123Z,14.39
2022-10-25T08:41:48.036Z,14.42
2022-10-25T08:44:21.836Z,14.44
2022-10-25T08:46:58.324Z,14.49
2022-10-25T08:49:33.055Z,14.53
2022-10-25T08:52:02.885Z,14.59
2022-10-25T08:54:35.837Z,14.68
2022-10-25T08:57:16.710Z,14.87
2022-10-25T08:59:50.139Z,14.95
2022-10-25T09:02:24.498Z,14.94
2022-10-25T09:04:53.008Z,14.92
2022-10-25T09:07:46.735Z,14.90
2022-10-25T09:10:24.275Z,14.92
2022-10-25T09:13:08.341Z,14.98
2022-10-25T09:15:54.756Z,15.08
2022-10-25T09:18:33.128Z,15.22
2022-10-25T09:21:11.553Z,15.34
2022-10-25T09:23:51.589Z,15.43
2022-10-25T09:26:39.283Z,15.48
2022-10-25T09:29:25.177Z,15.57
2022-10-25T09:31:57.370Z,15.70
2022-10-25T09:34:29.500Z,15.79
2022-10-25T09:37:05.108Z,15.92
2022-10-25T09:39:38.818Z,16.05
2022-10-25T09:42:15.840Z,16.15
2022-10-25T09:44:51.021Z,16.23
2022-10-25T09:47:29.224Z,16.33
2022-10-25T09:50:02.606Z,16.45
2022-10-25T09:52:38.033Z,16.51
2022-10-25T09:55:30.165Z,16.58
2022-10-25T09:57:58.520Z,16.65
2022-10-25T10:00:29.434Z,16.69
2022-10-25T10:02:58.001Z,16.69
2022-10-25T10:05:26.718Z,16.71
2022-10-25T10:07:55.491Z,16.76
2022-10-25T10:10:27.676Z,16.78
2022-10-25T10:13:01.595Z,16.81
2022-10-25T10:15:36.591Z,16.81
2022-10-25T10:18:25.799Z,16.78
2022-10-25T10:20:59.384Z,16.72
2022-10-25T10:23:29.521Z,16.69
2022-10-25T10:26:01.539Z,16.70
2022-10-25T10:28:30.187Z,16.73
2022-10-25T10:31:00.552Z,16.77
2022-10-25T10:33:33.930Z,16.81
2022-10-25T10:36:28.040Z,16.82
2022-10-25T10:39:13.615Z,16.85
2022-10-25T10:41:58.313Z,16.91
2022-10-25T10:44:26.678Z,16.98
2022-10-25T10:46:56.928Z,17.02
2022-10-25T10:49:36.520Z,17.09
2022-10-25T10:52:06.012Z,17.16
2022-10-25T10:54:37.877Z,17.23
2022-10-25T10:57:08.233Z,17.35
2022-10-25T10:59:41.197Z,17.44
2022-10-25T11:02:27.450Z,17.57
2022-10-25T11:04:57.958Z,17.67
2022-10-25T11:07:36.853Z,17.77
2022-10-25T11:10:23.842Z,17.87
2022-10-25T11:13:10.647Z,17.96
2022-10-25T11:16:11.419Z,18.06
2022-10-25T11:19:02.916Z,18.15
2022-10-25T11:21:55.383Z,18.24
2022-10-25T11:24:34.846Z,18.33
2022-10-25T11:27:12.317Z,18.44
2022-10-25T11:30:04.776Z,18.54
2022-10-25T11:33:15.112Z,18.63
2022-10-25T11:36:02.255Z,18.73
2022-10-25T11:38:43.016Z,18.82
2022-10-25T11:41:24.904Z,18.92
2022-10-25T11:44:05.848Z,18.98
2022-10-25T11:46:44.432Z,19.07
2022-10-25T11:49:34.384Z,19.18
2022-10-25T11:52:26.806Z,19.32
2022-10-25T11:55:05.517Z,19.41
2022-10-25T11:57:44.240Z,19.49
2022-10-25T12:00:17.035Z,19.56
2022-10-25T12:03:07.003Z,19.63
2022-10-25T12:05:44.695Z,19.71
2022-10-25T12:08:27.509Z,19.75
2022-10-25T12:10:59.627Z,19.79
2022-10-25T12:13:32.456Z,19.84
2022-10-25T12:16:01.371Z,19.88
2022-10-25T12:18:36.600Z,19.95
2022-10-25T12:21:06.805Z,20.00
2022-10-25T12:23:43.962Z,20.07
2022-10-25T12:26:21.124Z,20.14
2022-10-25T12:28:51.349Z,20.22
2022-10-25T12:31:22.648Z,20.30
2022-10-25T12:33:56.570Z,20.34
2022-10-25T12:36:31.793Z,20.22
2022-10-25T12:39:05.525Z,20.05
2022-10-25T12:41:38.779Z,19.92
2022-10-25T12:44:23.964Z,19.96
2022-10-25T12:47:05.289Z,20.07
2022-10-25T12:53:20.797Z,20.32
2022-10-25T12:56:01.730Z,20.34
2022-10-25T12:58:50.757Z,20.44
2022-10-25T13:01:39.335Z,20.53
2022-10-25T13:04:46.558Z,20.57
2022-10-25T13:07:15.780Z,20.54
2022-10-25T13:09:44.416Z,20.54
2022-10-25T13:12:23.956Z,20.49
2022-10-25T13:14:54.763Z,20.44
2022-10-25T13:17:48.198Z,20.47
2022-10-25T13:20:51.324Z,20.61
2022-10-25T13:23:53.880Z,20.75
2022-10-25T13:26:25.692Z,20.80
2022-10-25T13:28:57.544Z,20.78
2022-10-25T13:31:46.980Z,20.79
2022-10-25T13:34:23.740Z,20.81
2022-10-25T13:36:55.330Z,20.82
2022-10-25T13:39:27.455Z,20.87
2022-10-25T13:42:01.847Z,20.94
2022-10-25T13:44:31.885Z,20.94
2022-10-25T13:47:00.728Z,20.80
2022-10-25T13:49:32.891Z,20.80
2022-10-25T13:52:05.196Z,20.85
2022-10-25T13:54:51.890Z,20.90
2022-10-25T13:57:52.923Z,20.96
2022-10-25T14:00:34.716Z,20.99
2022-10-25T14:03:34.490Z,21.03
2022-10-25T14:06:23.954Z,21.03
2022-10-25T14:09:00.599Z,21.02
2022-10-25T14:11:37.655Z,21.01
2022-10-25T14:14:17.256Z,21.00
2022-10-25T14:17:00.808Z,21.07
2022-10-25T14:19:37.945Z,21.24
2022-10-25T14:22:14.971Z,21.45
2022-10-25T14:24:47.727Z,21.49
2022-10-25T14:27:30.905Z,21.62
2022-10-25T14:30:24.305Z,21.63
2022-10-25T14:32:56.488Z,21.61
2022-10-25T14:35:27.059Z,21.65
2022-10-25T14:37:55.689Z,21.63
2022-10-25T14:40:26.051Z,21.52
2022-10-25T14:42:55.709Z,21.34
2022-10-25T14:45:26.421Z,21.16
2022-10-25T14:47:56.769Z,21.01
2022-10-25T14:50:27.016Z,20.90
2022-10-25T14:53:05.603Z,20.79
2022-10-25T14:55:35.060Z,20.68
2022-10-25T14:58:05.344Z,20.61
2022-10-25T15:00:33.938Z,20.54
2022-10-25T15:03:06.679Z,20.45
2022-10-25T15:05:35.140Z,20.38
2022-10-25T15:08:03.534Z,20.30
2022-10-25T15:10:40.786Z,20.19
2022-10-25T15:13:16.633Z,20.11
2022-10-25T15:15:46.680Z,20.00
2022-10-25T15:18:35.461Z,19.91
2022-10-25T15:21:07.320Z,19.83
2022-10-25T15:23:36.237Z,19.78
2022-10-25T15:26:24.393Z,19.72
2022-10-25T15:28:55.500Z,19.65
2022-10-25T15:31:26.025Z,19.56
2022-10-25T15:34:03.092Z,19.48
2022-10-25T15:36:33.651Z,19.39
2022-10-25T15:39:10.166Z,19.30
2022-10-25T15:41:41.160Z,19.20
2022-10-25T15:44:09.744Z,19.07
2022-10-25T15:46:38.429Z,18.98
2022-10-25T15:49:09.059Z,18.88
2022-10-25T15:51:40.044Z,18.82
2022-10-25T15:54:14.635Z,18.74
2022-10-25T15:56:43.036Z,18.65
2022-10-25T15:59:11.507Z,18.57
2022-10-25T16:01:42.702Z,18.44
2022-10-25T16:04:15.507Z,18.36
2022-10-25T16:06:44.677Z,18.32
2022-10-25T16:09:13.228Z,18.26
2022-10-25T16:11:46.297Z,18.18
2022-10-25T16:14:21.736Z,18.10
2022-10-25T16:16:50.716Z,18.00
2022-10-25T16:19:21.928Z,17.90
2022-10-25T16:21:50.326Z,17.77
2022-10-25T16:24:19.718Z,17.66
2022-10-25T16:26:49.353Z,17.57
2022-10-25T16:29:19.572Z,17.52
2022-10-25T16:31:48.311Z,17.47
2022-10-25T16:34:17.385Z,17.40
2022-10-25T16:36:48.196Z,17.31
2022-10-25T16:39:16.929Z,17.26
2022-10-25T16:41:47.191Z,17.24
2022-10-25T16:44:18.200Z,17.16
2022-10-25T16:46:47.092Z,17.05
2022-10-25T16:49:15.440Z,16.96
2022-10-25T16:51:44.207Z,16.88
2022-10-25T16:54:15.609Z,16.79
2022-10-25T16:56:44.153Z,16.76
2022-10-25T16:59:12.503Z,16.70
2022-10-25T17:01:44.573Z,16.63
2022-10-25T17:04:14.678Z,16.63
2022-10-25T17:06:43.218Z,16.65
2022-10-25T17:09:13.243Z,16.61
2022-10-25T17:11:41.697Z,16.57
2022-10-25T17:14:10.637Z,16.51
2022-10-25T17:16:40.684Z,16.44
2022-10-25T17:19:10.644Z,16.38
2022-10-25T17:21:39.381Z,16.32
2022-10-25T17:24:09.710Z,16.29
2022-10-25T17:26:40.236Z,16.29
2022-10-25T17:29:08.677Z,16.29
2022-10-25T17:31:37.403Z,16.30
2022-10-25T17:34:05.888Z,16.32
2022-10-25T17:36:34.616Z,16.26
2022-10-25T17:39:03.032Z,16.19
2022-10-25T17:41:31.533Z,16.06
2022-10-25T17:44:01.287Z,15.98
2022-10-25T17:46:31.757Z,15.89
2022-10-25T17:49:03.233Z,15.80
2022-10-25T17:51:33.220Z,15.70
2022-10-25T17:54:01.804Z,15.73
2022-10-25T17:59:07.132Z,15.84
2022-10-25T18:01:37.032Z,15.81
2022-10-25T18:04:05.504Z,15.71
2022-10-25T18:06:33.865Z,15.59
2022-10-25T18:09:03.846Z,15.41
2022-10-25T18:11:32.468Z,15.28
2022-10-25T18:14:02.184Z,15.21
2022-10-25T18:16:33.220Z,15.13
2022-10-25T18:19:03.424Z,15.04
2022-10-25T18:21:33.151Z,14.97
2022-10-25T18:24:03.655Z,14.91
2022-10-25T18:26:33.139Z,14.96
2022-10-25T18:29:01.961Z,14.94
2022-10-25T18:31:31.979Z,14.93
2022-10-25T18:34:03.456Z,14.91
2022-10-25T18:36:32.562Z,14.88
2022-10-25T18:39:01.240Z,14.84
2022-10-25T18:41:31.496Z,14.80
2022-10-25T18:44:00.755Z,14.79
2022-10-25T18:46:30.846Z,14.77
2022-10-25T18:49:00.970Z,14.73
2022-10-25T18:51:30.162Z,14.72
2022-10-25T18:53:59.829Z,14.72
2022-10-25T18:56:29.313Z,14.68
2022-10-25T18:58:59.038Z,14.61
2022-10-25T19:01:32.543Z,14.55
2022-10-25T19:04:04.161Z,14.56
2022-10-25T19:06:33.783Z,14.57
2022-10-25T19:09:03.951Z,14.55
2022-10-25T19:11:33.301Z,14.56
2022-10-25T19:14:03.213Z,14.52
2022-10-25T19:16:31.818Z,14.43
2022-10-25T19:19:07.108Z,14.41
2022-10-25T19:21:35.972Z,14.41
2022-10-25T19:24:04.742Z,14.43
2022-10-25T19:26:33.608Z,14.45
2022-10-25T19:29:02.399Z,14.47
2022-10-25T19:31:30.908Z,14.50
2022-10-25T19:34:00.452Z,14.50
2022-10-25T19:36:31.502Z,14.47
2022-10-25T19:39:01.712Z,14.46
2022-10-25T19:41:30.110Z,14.45
2022-10-25T19:43:59.383Z,14.47
2022-10-25T19:46:27.827Z,14.47
2022-10-25T19:49:00.209Z,14.46
2022-10-25T19:51:29.968Z,14.45
2022-10-25T19:53:58.335Z,14.45
2022-10-25T19:56:26.724Z,14.41
2022-10-25T19:58:55.189Z,14.38
2022-10-25T20:01:25.157Z,14.36
2022-10-25T20:03:55.688Z,14.34
2022-10-25T20:06:25.526Z,14.36
2022-10-25T20:08:56.479Z,14.40
2022-10-25T20:11:28.085Z,14.41
2022-10-25T20:13:57.647Z,14.42
2022-10-25T20:16:27.443Z,14.38
2022-10-25T20:18:56.277Z,14.36
2022-10-25T20:21:26.158Z,14.35
2022-10-25T20:23:57.807Z,14.35
2022-10-25T20:26:27.859Z,14.37
2022-10-25T20:28:57.977Z,14.37
2022-10-25T20:31:28.008Z,14.38
2022-10-25T20:33:56.779Z,14.38
2022-10-25T20:36:25.947Z,14.40
2022-10-25T20:38:55.829Z,14.40
2022-10-25T20:41:26.900Z,14.41
2022-10-25T20:43:57.740Z,14.43
2022-10-25T20:46:28.525Z,14.45
2022-10-25T20:48:58.176Z,14.44
2022-10-25T20:51:27.057Z,14.44
2022-10-25T20:53:57.768Z,14.44
2022-10-25T20:56:26.212Z,14.42
2022-10-25T20:58:54.506Z,14.39
2022-10-25T21:01:22.895Z,14.33
2022-10-25T21:03:51.696Z,14.33
2022-10-25T21:06:22.437Z,14.29
2022-10-25T21:08:50.827Z,14.25
2022-10-25T21:11:22.188Z,14.24
2022-10-25T21:13:51.919Z,14.25
2022-10-25T21:16:21.469Z,14.27
2022-10-25T21:18:50.436Z,14.26
2022-10-25T21:21:20.570Z,14.23
2022-10-25T21:23:55.316Z,14.21
2022-10-25T21:26:27.337Z,14.19
2022-10-25T21:28:57.344Z,14.16
2022-10-25T21:31:26.753Z,14.14
2022-10-25T21:33:59.337Z,14.14
2022-10-25T21:36:29.188Z,14.11
2022-10-25T21:38:57.993Z,14.09
2022-10-25T21:41:27.811Z,14.07
2022-10-25T21:43:56.948Z,14.05
2022-10-25T21:46:27.855Z,13.98
2022-10-25T21:48:56.425Z,13.93
2022-10-25T21:51:25.368Z,13.87
2022-10-25T21:53:54.118Z,13.83
2022-10-25T21:56:23.497Z,13.77
2022-10-25T21:58:53.452Z,13.76
2022-10-25T22:01:24.480Z,13.72
2022-10-25T22:03:53.192Z,13.70
2022-10-25T22:06:23.895Z,13.69
2022-10-25T22:08:53.848Z,13.67
2022-10-25T22:11:24.495Z,13.67
2022-10-25T22:13:58.436Z,13.68
2022-10-25T22:16:27.088Z,13.66
2022-10-25T22:18:57.668Z,13.64
2022-10-25T22:21:26.892Z,13.63
2022-10-25T22:23:55.347Z,13.59
2022-10-25T22:26:23.882Z,13.51
2022-10-25T22:28:53.553Z,13.44
2022-10-25T22:31:24.742Z,13.41
2022-10-25T22:33:54.796Z,13.36
2022-10-25T22:36:24.333Z,13.38
2022-10-25T22:38:52.693Z,13.37
2022-10-25T22:41:23.208Z,13.35
2022-10-25T22:43:51.841Z,13.35
2022-10-25T22:46:25.027Z,13.36
2022-10-25T22:48:56.653Z,13.33
2022-10-25T22:51:27.045Z,13.33
2022-10-25T22:53:55.446Z,13.33
2022-10-25T22:56:25.436Z,13.33
2022-10-25T22:58:55.864Z,13.34
2022-10-25T23:01:26.015Z,13.31
2022-10-25T23:03:58.191Z,13.32
2022-10-25T23:06:28.630Z,13.31
2022-10-25T23:08:58.891Z,13.35
2022-10-25T23:11:29.041Z,13.36
2022-10-25T23:13:58.251Z,13.35
2022-10-25T23:16:26.983Z,13.36
2022-10-25T23:18:57.005Z,13.36
2022-10-25T23:21:27.757Z,13.38
2022-10-25T23:23:57.291Z,13.41
2022-10-25T23:26:27.129Z,13.43
2022-10-25T23:28:56.193Z,13.45
2022-10-25T23:31:25.812Z,13.48
2022-10-25T23:33:56.911Z,13.51
2022-10-25T23:36:27.171Z,13.52
2022-10-25T23:38:58.850Z,13.56
2022-10-25T23:41:27.231Z,13.57
2022-10-25T23:43:55.567Z,13.57
2022-10-25T23:46:23.928Z,13.57
2022-10-25T23:48:52.250Z,13.58
2022-10-25T23:51:21.979Z,13.57
2022-10-25T23:53:50.321Z,13.56
2022-10-25T23:56:18.680Z,13.57
2022-10-25T23:58:50.551Z,13.56
